createdAt,value
2022-09-21T00:02:15.146Z,6.52
2022-09-21T00:04:44.394Z,6.54
2022-09-21T00:07:13.487Z,6.51
2022-09-21T00:09:45.340Z,6.54
2022-09-21T00:12:15.100Z,6.58
2022-09-21T00:14:45.313Z,6.62
2022-09-21T00:17:14.536Z,6.66
2022-09-21T00:19:43.721Z,6.67
2022-09-21T00:22:13.249Z,6.65
2022-09-21T00:24:49.468Z,6.62
2022-09-21T00:27:19.100Z,6.56
2022-09-21T00:29:48.232Z,6.56
2022-09-21T00:32:24.735Z,6.53
2022-09-21T00:34:53.896Z,6.52
2022-09-21T00:37:23.190Z,6.45
2022-09-21T00:39:54.913Z,6.46
2022-09-21T00:42:24.481Z,6.57
2022-09-21T00:44:59.228Z,6.42
2022-09-21T00:47:32.934Z,6.50
2022-09-21T00:50:07.094Z,6.52
2022-09-21T00:52:41.301Z,6.52
2022-09-21T00:55:17.269Z,6.47
2022-09-21T00:57:50.762Z,6.42
2022-09-21T01:00:20.264Z,6.40
2022-09-21T01:02:49.991Z,6.35
2022-09-21T01:05:19.480Z,6.37
2022-09-21T01:07:49.899Z,6.35
2022-09-21T01:10:27.101Z,6.32
2022-09-21T01:13:17.949Z,6.36
2022-09-21T01:15:56.121Z,6.28
2022-09-21T01:18:36.919Z,6.39
2022-09-21T01:21:20.798Z,6.40
2022-09-21T01:24:19.404Z,6.35
2022-09-21T01:27:35.638Z,6.37
2022-09-21T01:30:09.524Z,6.32
2022-09-21T01:32:43.472Z,6.39
2022-09-21T01:35:18.276Z,6.46
2022-09-21T01:37:57.217Z,6.45
2022-09-21T01:40:35.411Z,6.51
2022-09-21T01:43:13.685Z,6.44
2022-09-21T01:45:58.006Z,6.44
2022-09-21T01:48:27.913Z,6.34
2022-09-21T01:50:59.818Z,6.12
2022-09-21T01:53:34.581Z,6.34
2022-09-21T01:56:11.648Z,6.52
2022-09-21T01:58:47.783Z,6.74
2022-09-21T02:01:23.109Z,6.74
2022-09-21T02:03:56.165Z,6.69
2022-09-21T02:06:27.785Z,6.60
2022-09-21T02:08:57.723Z,6.56
2022-09-21T02:11:26.972Z,6.47
2022-09-21T02:16:39.328Z,6.29
2022-09-21T02:19:28.866Z,6.39
2022-09-21T02:22:10.689Z,6.35
2022-09-21T02:24:44.368Z,6.26
2022-09-21T02:27:29.955Z,6.30
2022-09-21T02:30:05.336Z,6.29
2022-09-21T02:32:50.007Z,6.24
2022-09-21T02:35:30.059Z,6.38
2022-09-21T02:38:09.067Z,6.48
2022-09-21T02:40:43.198Z,6.48
2022-09-21T02:43:16.603Z,6.49
2022-09-21T02:45:57.235Z,6.51
2022-09-21T02:48:38.504Z,6.48
2022-09-21T02:51:17.568Z,6.40
2022-09-21T02:53:49.053Z,6.52
2022-09-21T02:56:18.631Z,6.52
2022-09-21T02:58:51.468Z,6.57
2022-09-21T03:01:22.027Z,6.60
2022-09-21T03:03:53.342Z,6.63
2022-09-21T03:06:23.251Z,6.72
2022-09-21T03:08:52.452Z,6.77
2022-09-21T03:11:22.281Z,6.86
2022-09-21T03:13:51.358Z,6.91
2022-09-21T03:16:21.952Z,6.96
2022-09-21T03:18:53.079Z,6.96
2022-09-21T03:21:22.324Z,7.02
2022-09-21T03:23:51.702Z,7.02
2022-09-21T03:26:26.378Z,7.08
2022-09-21T03:28:55.725Z,7.14
2022-09-21T03:31:25.057Z,7.11
2022-09-21T03:34:01.485Z,7.28
2022-09-21T03:36:30.806Z,7.43
2022-09-21T03:38:59.914Z,7.53
2022-09-21T03:41:29.089Z,7.62
2022-09-21T03:43:58.253Z,7.67
2022-09-21T03:46:34.923Z,7.73
2022-09-21T03:49:11.305Z,7.83
2022-09-21T03:51:40.858Z,7.96
2022-09-21T03:54:09.996Z,8.08
2022-09-21T03:56:39.564Z,8.19
2022-09-21T03:59:11.898Z,8.32
2022-09-21T04:01:43.298Z,8.42
2022-09-21T04:04:16.223Z,8.54
2022-09-21T04:06:55.687Z,8.69
2022-09-21T04:09:24.946Z,8.78
2022-09-21T04:11:54.465Z,8.92
2022-09-21T04:14:24.527Z,9.02
2022-09-21T04:16:58.951Z,9.09
2022-09-21T04:19:30.600Z,9.13
2022-09-21T04:22:00.013Z,9.18
2022-09-21T04:24:30.541Z,9.14
2022-09-21T04:26:59.702Z,9.18
2022-09-21T04:29:28.892Z,9.24
2022-09-21T04:31:58.029Z,9.24
2022-09-21T04:34:27.159Z,9.20
2022-09-21T04:37:01.023Z,9.35
2022-09-21T04:39:31.415Z,9.24
2022-09-21T04:42:00.458Z,9.19
2022-09-21T04:44:29.887Z,9.25
2022-09-21T04:46:59.878Z,9.36
2022-09-21T04:49:29.128Z,9.34
2022-09-21T04:52:06.687Z,9.48
2022-09-21T04:54:35.785Z,9.59
2022-09-21T04:57:10.074Z,9.71
2022-09-21T04:59:39.245Z,9.80
2022-09-21T05:02:08.504Z,9.91
2022-09-21T05:04:37.749Z,10.00
2022-09-21T05:07:09.060Z,10.21
2022-09-21T05:09:56.474Z,10.39
2022-09-21T05:12:25.725Z,10.44
2022-09-21T05:14:55.658Z,10.37
2022-09-21T05:17:25.676Z,10.34
2022-09-21T05:19:55.142Z,10.34
2022-09-21T05:22:27.146Z,10.39
2022-09-21T05:24:55.925Z,10.61
2022-09-21T05:27:25.042Z,10.62
2022-09-21T05:29:59.913Z,10.67
2022-09-21T05:32:40.357Z,10.70
2022-09-21T05:35:18.393Z,10.71
2022-09-21T05:37:55.593Z,10.79
2022-09-21T05:40:25.976Z,10.89
2022-09-21T05:42:56.057Z,11.09
2022-09-21T05:45:28.420Z,11.32
2022-09-21T05:48:15.704Z,11.40
2022-09-21T05:50:56.353Z,11.50
2022-09-21T05:54:00.378Z,11.41
2022-09-21T05:56:45.109Z,11.79
2022-09-21T05:59:40.016Z,11.97
2022-09-21T06:02:22.430Z,12.01
2022-09-21T06:04:53.785Z,12.11
2022-09-21T06:07:22.958Z,12.13
2022-09-21T06:09:54.022Z,12.01
2022-09-21T06:12:23.244Z,11.83
2022-09-21T06:14:52.399Z,11.70
2022-09-21T06:17:21.564Z,11.62
2022-09-21T06:19:50.755Z,11.54
2022-09-21T06:22:19.917Z,11.43
2022-09-21T06:24:49.010Z,11.42
2022-09-21T06:27:20.773Z,11.33
2022-09-21T06:29:49.652Z,11.43
2022-09-21T06:32:20.782Z,11.17
2022-09-21T06:34:55.130Z,11.13
2022-09-21T06:37:24.304Z,11.07
2022-09-21T06:40:04.115Z,11.05
2022-09-21T06:42:35.416Z,11.12
2022-09-21T06:45:12.094Z,11.27
2022-09-21T06:47:41.190Z,11.41
2022-09-21T06:50:11.101Z,11.64
2022-09-21T06:52:41.630Z,11.99
2022-09-21T06:55:11.897Z,12.43
2022-09-21T06:57:43.365Z,12.57
2022-09-21T07:00:14.775Z,12.81
2022-09-21T07:02:46.360Z,13.00
2022-09-21T07:05:20.574Z,13.14
2022-09-21T07:07:53.717Z,13.19
2022-09-21T07:10:23.137Z,13.33
2022-09-21T07:12:59.395Z,13.41
2022-09-21T07:15:29.976Z,13.49
2022-09-21T07:18:06.329Z,13.57
2022-09-21T07:20:41.040Z,13.53
2022-09-21T07:23:14.828Z,13.47
2022-09-21T07:25:44.435Z,13.44
2022-09-21T07:28:15.730Z,13.33
2022-09-21T07:30:45.127Z,13.17
2022-09-21T07:33:14.234Z,13.02
2022-09-21T07:35:52.758Z,12.97
2022-09-21T07:38:22.256Z,13.08
2022-09-21T07:40:52.088Z,13.12
2022-09-21T07:43:23.207Z,13.21
2022-09-21T07:46:01.343Z,13.38
2022-09-21T07:48:31.026Z,13.45
2022-09-21T07:51:05.716Z,13.57
2022-09-21T07:53:35.233Z,13.67
2022-09-21T07:56:05.482Z,13.97
2022-09-21T07:58:56.239Z,14.11
2022-09-21T08:01:25.990Z,13.97
2022-09-21T08:03:56.859Z,13.94
2022-09-21T08:06:27.300Z,13.92
2022-09-21T08:09:01.695Z,13.92
2022-09-21T08:11:32.751Z,13.93
2022-09-21T08:14:22.464Z,14.11
2022-09-21T08:17:00.264Z,14.20
2022-09-21T08:19:29.566Z,14.23
2022-09-21T08:21:58.712Z,14.19
2022-09-21T08:24:28.346Z,14.29
2022-09-21T08:26:59.444Z,14.24
2022-09-21T08:29:30.733Z,14.30
2022-09-21T08:32:00.238Z,14.22
2022-09-21T08:34:29.544Z,14.13
2022-09-21T08:36:58.846Z,14.13
2022-09-21T08:39:28.086Z,13.98
2022-09-21T08:42:11.420Z,14.03
2022-09-21T08:44:46.845Z,14.12
2022-09-21T08:47:20.520Z,14.31
2022-09-21T08:49:55.738Z,14.75
2022-09-21T08:52:35.105Z,14.86
2022-09-21T08:55:17.351Z,14.88
2022-09-21T08:57:49.831Z,14.89
2022-09-21T09:00:23.002Z,14.86
2022-09-21T09:03:29.962Z,14.87
2022-09-21T09:06:10.108Z,14.73
2022-09-21T09:09:09.352Z,14.86
2022-09-21T09:12:00.108Z,14.82
2022-09-21T09:14:49.092Z,14.63
2022-09-21T09:17:51.324Z,14.60
2022-09-21T09:20:21.962Z,14.79
2022-09-21T09:23:04.394Z,14.71
2022-09-21T09:25:39.456Z,14.75
2022-09-21T09:28:22.624Z,14.95
2022-09-21T09:30:58.704Z,14.99
2022-09-21T09:33:43.971Z,15.13
2022-09-21T09:36:14.898Z,15.15
2022-09-21T09:38:52.152Z,14.97
2022-09-21T09:41:50.230Z,14.82
2022-09-21T09:44:39.873Z,14.68
2022-09-21T09:47:18.606Z,14.45
2022-09-21T09:50:00.739Z,14.53
2022-09-21T09:52:31.935Z,14.43
2022-09-21T09:55:01.605Z,14.39
2022-09-21T09:57:34.125Z,14.47
2022-09-21T10:00:14.201Z,14.55
2022-09-21T10:02:49.644Z,14.63
2022-09-21T10:05:26.943Z,14.52
2022-09-21T10:07:56.174Z,14.45
2022-09-21T10:10:34.035Z,14.59
2022-09-21T10:13:15.750Z,14.56
2022-09-21T10:15:50.871Z,14.39
2022-09-21T10:18:24.055Z,14.49
2022-09-21T10:21:01.838Z,14.51
2022-09-21T10:23:32.879Z,14.34
2022-09-21T10:26:05.077Z,14.56
2022-09-21T10:28:35.441Z,14.51
2022-09-21T10:31:19.282Z,14.49
2022-09-21T10:33:55.001Z,14.58
2022-09-21T10:36:39.654Z,14.56
2022-09-21T10:39:23.491Z,14.59
2022-09-21T10:41:56.049Z,14.47
2022-09-21T10:44:28.597Z,14.55
2022-09-21T10:47:00.585Z,14.53
2022-09-21T10:49:31.082Z,14.53
2022-09-21T10:52:05.126Z,14.62
2022-09-21T10:54:35.592Z,14.50
2022-09-21T10:57:16.512Z,14.55
2022-09-21T10:59:46.316Z,14.66
2022-09-21T11:02:43.709Z,14.76
2022-09-21T11:05:17.740Z,14.66
2022-09-21T11:07:56.457Z,14.49
2022-09-21T11:10:38.620Z,14.51
2022-09-21T11:13:30.857Z,14.49
2022-09-21T11:16:06.291Z,14.56
2022-09-21T11:18:47.858Z,14.62
2022-09-21T11:21:32.129Z,14.60
2022-09-21T11:24:14.653Z,14.61
2022-09-21T11:26:51.927Z,14.59
2022-09-21T11:29:31.308Z,14.49
2022-09-21T11:32:23.511Z,14.58
2022-09-21T11:35:20.720Z,14.53
2022-09-21T11:37:58.854Z,14.62
2022-09-21T11:40:50.273Z,14.57
2022-09-21T11:43:32.782Z,14.52
2022-09-21T11:46:15.405Z,14.44
2022-09-21T11:48:57.326Z,14.33
2022-09-21T11:51:41.967Z,14.31
2022-09-21T11:54:33.940Z,14.26
2022-09-21T11:57:10.882Z,14.13
2022-09-21T11:59:59.941Z,14.25
2022-09-21T12:02:53.246Z,14.18
2022-09-21T12:05:31.463Z,14.18
2022-09-21T12:08:35.394Z,14.27
2022-09-21T12:11:13.634Z,14.21
2022-09-21T12:13:54.431Z,14.24
2022-09-21T12:16:30.047Z,14.12
2022-09-21T12:19:06.744Z,14.13
2022-09-21T12:21:39.007Z,14.08
2022-09-21T12:24:16.978Z,14.06
2022-09-21T12:26:50.289Z,14.04
2022-09-21T12:29:30.669Z,13.99
2022-09-21T12:32:05.168Z,13.96
2022-09-21T12:34:41.614Z,13.93
2022-09-21T12:37:16.537Z,13.93
2022-09-21T12:39:51.481Z,13.93
2022-09-21T12:42:32.598Z,13.99
2022-09-21T12:45:08.530Z,13.99
2022-09-21T12:47:49.067Z,14.02
2022-09-21T12:56:51.303Z,13.86
2022-09-21T12:59:31.807Z,13.93
2022-09-21T13:02:15.069Z,13.94
2022-09-21T13:04:52.989Z,14.05
2022-09-21T13:07:54.936Z,14.10
2022-09-21T13:10:40.520Z,14.11
2022-09-21T13:13:22.328Z,14.23
2022-09-21T13:15:52.706Z,14.22
2022-09-21T13:18:35.860Z,14.22
2022-09-21T13:21:18.803Z,14.13
2022-09-21T13:23:58.733Z,14.18
2022-09-21T13:26:38.073Z,14.15
2022-09-21T13:29:34.439Z,14.09
2022-09-21T13:32:05.467Z,14.09
2022-09-21T13:34:36.876Z,14.12
2022-09-21T13:37:32.486Z,14.14
2022-09-21T13:40:42.057Z,14.09
2022-09-21T13:43:46.826Z,14.02
2022-09-21T13:46:55.636Z,14.05
2022-09-21T13:49:39.088Z,14.02
2022-09-21T13:52:34.235Z,14.02
2022-09-21T13:55:06.734Z,14.02
2022-09-21T13:57:42.493Z,13.95
2022-09-21T14:00:39.311Z,13.91
2022-09-21T14:03:23.745Z,13.88
2022-09-21T14:05:55.248Z,13.87
2022-09-21T14:08:33.162Z,13.76
2022-09-21T14:11:05.890Z,13.76
2022-09-21T14:13:37.793Z,13.72
2022-09-21T14:16:47.696Z,13.70
2022-09-21T14:20:01.539Z,13.72
2022-09-21T14:22:45.010Z,13.58
2022-09-21T14:25:50.669Z,13.54
2022-09-21T14:28:25.820Z,13.42
2022-09-21T14:31:00.862Z,13.57
2022-09-21T14:33:41.269Z,13.51
2022-09-21T14:36:20.365Z,13.54
2022-09-21T14:38:57.730Z,13.47
2022-09-21T14:41:30.897Z,13.39
2022-09-21T14:44:01.027Z,13.37
2022-09-21T14:46:53.508Z,13.37
2022-09-21T14:49:52.403Z,13.38
2022-09-21T14:52:38.025Z,13.25
2022-09-21T14:55:19.379Z,13.27
2022-09-21T14:58:13.981Z,13.21
2022-09-21T15:00:45.800Z,13.16
2022-09-21T15:03:38.704Z,13.17
2022-09-21T15:06:30.789Z,13.02
2022-09-21T15:09:32.153Z,12.85
2022-09-21T15:12:11.751Z,12.93
2022-09-21T15:14:50.442Z,12.90
2022-09-21T15:17:29.499Z,12.91
2022-09-21T15:20:06.119Z,12.82
2022-09-21T15:22:44.500Z,12.82
2022-09-21T15:25:15.870Z,12.83
2022-09-21T15:27:48.051Z,12.84
2022-09-21T15:30:25.749Z,12.84
2022-09-21T15:32:57.371Z,12.81
2022-09-21T15:35:28.887Z,12.81
2022-09-21T15:38:00.468Z,12.89
2022-09-21T15:40:51.943Z,12.90
2022-09-21T15:43:34.068Z,12.86
2022-09-21T15:46:05.401Z,12.84
2022-09-21T15:48:35.976Z,12.85
2022-09-21T15:51:12.351Z,12.81
2022-09-21T15:53:50.019Z,12.84
2022-09-21T15:56:23.008Z,12.66
2022-09-21T15:59:07.467Z,12.85
2022-09-21T16:01:44.338Z,12.74
2022-09-21T16:04:23.235Z,12.78
2022-09-21T16:07:03.752Z,12.79
2022-09-21T16:09:42.210Z,12.74
2022-09-21T16:12:49.222Z,12.74
2022-09-21T16:15:26.011Z,12.74
2022-09-21T16:18:01.361Z,12.69
2022-09-21T16:20:48.248Z,12.77
2022-09-21T16:23:21.107Z,12.62
2022-09-21T16:25:56.862Z,12.59
2022-09-21T16:28:35.965Z,12.54
2022-09-21T16:31:30.578Z,12.55
2022-09-21T16:34:21.606Z,12.49
2022-09-21T16:36:53.472Z,12.39
2022-09-21T16:39:22.973Z,12.45
2022-09-21T16:41:59.703Z,12.29
2022-09-21T16:47:16.549Z,11.95
2022-09-21T16:49:46.189Z,11.81
2022-09-21T16:52:16.757Z,11.63
2022-09-21T16:54:50.932Z,11.43
2022-09-21T16:57:20.865Z,11.35
2022-09-21T16:59:50.373Z,11.11
2022-09-21T17:02:26.727Z,10.82
2022-09-21T17:04:56.105Z,10.22
2022-09-21T17:07:25.525Z,9.97
2022-09-21T17:09:54.630Z,9.78
2022-09-21T17:12:24.108Z,9.68
2022-09-21T17:14:59.562Z,9.71
2022-09-21T17:17:32.619Z,9.70
2022-09-21T17:20:08.950Z,9.76
2022-09-21T17:22:38.085Z,9.47
2022-09-21T17:25:09.709Z,9.70
2022-09-21T17:27:40.786Z,9.67
2022-09-21T17:30:17.119Z,9.63
2022-09-21T17:32:49.720Z,9.57
2022-09-21T17:35:24.800Z,9.58
2022-09-21T17:37:54.164Z,9.47
2022-09-21T17:40:24.943Z,9.56
2022-09-21T17:43:11.557Z,9.61
2022-09-21T17:45:46.292Z,9.60
2022-09-21T17:48:21.958Z,9.81
2022-09-21T17:50:57.983Z,9.87
2022-09-21T17:53:36.940Z,9.95
2022-09-21T17:56:32.722Z,10.09
2022-09-21T17:59:04.562Z,10.09
2022-09-21T18:01:35.613Z,10.21
2022-09-21T18:04:08.462Z,10.05
2022-09-21T18:06:38.745Z,9.92
2022-09-21T18:11:57.798Z,10.00
2022-09-21T18:14:36.344Z,10.02
2022-09-21T18:17:21.697Z,10.05
2022-09-21T18:20:06.789Z,10.11
2022-09-21T18:22:46.377Z,10.18
2022-09-21T18:25:18.572Z,10.17
2022-09-21T18:27:57.056Z,10.14
2022-09-21T18:30:26.533Z,10.24
2022-09-21T18:33:10.206Z,10.24
2022-09-21T18:35:57.334Z,10.23
2022-09-21T18:38:36.615Z,10.29
2022-09-21T18:41:14.107Z,10.15
2022-09-21T18:44:03.186Z,10.27
2022-09-21T18:46:42.148Z,10.27
2022-09-21T18:49:18.743Z,10.33
2022-09-21T18:51:56.675Z,10.34
2022-09-21T18:54:27.662Z,10.34
2022-09-21T18:56:58.398Z,10.37
2022-09-21T18:59:33.327Z,10.34
2022-09-21T19:02:03.470Z,10.35
2022-09-21T19:04:33.365Z,10.29
2022-09-21T19:07:16.022Z,10.18
2022-09-21T19:09:55.205Z,10.33
2022-09-21T19:12:54.841Z,10.17
2022-09-21T19:15:59.826Z,10.37
2022-09-21T19:18:43.464Z,10.42
2022-09-21T19:21:23.735Z,10.39
2022-09-21T19:24:11.420Z,10.22
2022-09-21T19:26:53.018Z,10.32
2022-09-21T19:29:35.010Z,10.25
2022-09-21T19:32:03.900Z,10.32
2022-09-21T19:34:38.436Z,10.17
2022-09-21T19:37:08.482Z,10.09
2022-09-21T19:39:42.138Z,10.08
2022-09-21T19:42:27.860Z,10.20
2022-09-21T19:45:16.887Z,10.20
2022-09-21T19:47:54.460Z,10.17
2022-09-21T19:50:28.129Z,10.11
2022-09-21T19:53:22.973Z,10.11
2022-09-21T19:56:07.681Z,10.12
2022-09-21T19:58:50.599Z,10.13
2022-09-21T20:04:09.472Z,10.10
2022-09-21T20:06:44.110Z,10.11
2022-09-21T20:09:16.828Z,9.99
2022-09-21T20:11:54.173Z,10.12
2022-09-21T20:14:36.601Z,10.15
2022-09-21T20:17:10.358Z,10.13
2022-09-21T20:19:45.969Z,10.11
2022-09-21T20:22:17.292Z,10.05
2022-09-21T20:24:56.465Z,10.08
2022-09-21T20:27:34.421Z,10.08
2022-09-21T20:30:04.173Z,9.96
2022-09-21T20:32:34.929Z,9.96
2022-09-21T20:35:04.130Z,9.97
2022-09-21T20:37:33.156Z,10.01
2022-09-21T20:40:02.808Z,9.93
2022-09-21T20:42:37.910Z,10.01
2022-09-21T20:45:09.807Z,10.00
2022-09-21T20:47:51.222Z,9.97
2022-09-21T20:50:21.122Z,10.03
2022-09-21T20:52:50.503Z,10.03
2022-09-21T20:55:20.825Z,10.08
2022-09-21T20:57:57.620Z,10.01
2022-09-21T21:00:27.665Z,10.02
2022-09-21T21:02:58.673Z,9.96
2022-09-21T21:05:28.566Z,9.78
2022-09-21T21:07:58.107Z,9.97
2022-09-21T21:10:27.891Z,9.98
2022-09-21T21:12:59.948Z,9.98
2022-09-21T21:15:29.814Z,9.76
2022-09-21T21:17:58.930Z,9.84
2022-09-21T21:20:28.630Z,9.86
2022-09-21T21:22:57.741Z,9.85
2022-09-21T21:25:26.879Z,9.92
2022-09-21T21:27:58.966Z,9.91
2022-09-21T21:30:30.719Z,9.93
2022-09-21T21:33:05.126Z,9.92
2022-09-21T21:35:35.788Z,9.92
2022-09-21T21:38:05.075Z,9.92
2022-09-21T21:43:19.177Z,9.94
2022-09-21T21:46:01.469Z,10.02
2022-09-21T21:48:31.647Z,9.99
2022-09-21T21:51:01.910Z,9.96
2022-09-21T21:53:34.220Z,9.78
2022-09-21T21:56:05.235Z,9.98
2022-09-21T21:58:34.972Z,10.01
2022-09-21T22:01:14.678Z,9.99
2022-09-21T22:03:43.937Z,9.96
2022-09-21T22:06:13.974Z,10.03
2022-09-21T22:08:44.554Z,9.99
2022-09-21T22:11:14.391Z,10.04
2022-09-21T22:13:43.432Z,10.01
2022-09-21T22:18:52.188Z,9.84
2022-09-21T22:21:23.323Z,9.96
2022-09-21T22:23:59.878Z,9.91
2022-09-21T22:26:30.664Z,9.88
2022-09-21T22:29:04.358Z,9.84
2022-09-21T22:31:37.954Z,9.91
2022-09-21T22:34:08.624Z,9.74
2022-09-21T22:36:45.199Z,9.90
2022-09-21T22:39:15.245Z,9.76
2022-09-21T22:41:45.184Z,9.84
2022-09-21T22:44:14.398Z,9.91
2022-09-21T22:46:45.460Z,9.91
2022-09-21T22:49:14.627Z,9.91
2022-09-21T22:51:43.660Z,9.94
2022-09-21T22:54:12.822Z,9.90
2022-09-21T22:59:16.402Z,9.87
2022-09-21T23:01:47.476Z,9.90
2022-09-21T23:04:16.702Z,9.90
2022-09-21T23:06:51.713Z,9.92
2022-09-21T23:09:22.413Z,9.94
2022-09-21T23:11:53.363Z,9.92
2022-09-21T23:14:24.302Z,9.95
2022-09-21T23:16:55.393Z,9.98
2022-09-21T23:19:24.617Z,9.95
2022-09-21T23:21:54.539Z,9.92
2022-09-21T23:24:23.721Z,9.95
2022-09-21T23:26:52.980Z,9.91
2022-09-21T23:29:22.151Z,9.94
2022-09-21T23:31:56.363Z,9.95
2022-09-21T23:34:27.576Z,9.94
2022-09-21T23:36:56.822Z,9.94
2022-09-21T23:39:25.861Z,9.93
2022-09-21T23:41:55.049Z,9.92
2022-09-21T23:44:24.168Z,9.79
2022-09-21T23:46:53.408Z,9.70
2022-09-21T23:49:22.574Z,9.83
2022-09-21T23:54:38.983Z,9.88
2022-09-21T23:57:08.263Z,9.85
2022-09-21T23:59:37.490Z,9.78
